Hollis, Mississippi
Current Conditions -  °F | °C
As of 5:09 PM on Sunday 21 Dec 2014 (Local Time) from KTUP Reporting Station
Scattered Clouds Scattered Clouds  
Wind Chill: 50°   Ceiling: Unl
Heat Index: 50°   Visibility: 10mi
Dew Point: 40°   Wind: 5mph
Humidity: 68%   Direction: 140°SE
Pressure: 30.04"   Gusts: NA
Location:  33.9472°N, 89.1968°W
Report Text: KTUP 212309Z AUTO 14004KT 10SM SCT026 10/04 A3004 RMK AO2 T01000044
Loading
Personal Weather Stations






























Interactive Weather Map New forecast layout! Learn more

10-Day Weather Forecast

Advertisements
Track Severe Weather on mobile